Time;durP1;ratioP1;P1;durP2;ratioP2;P2;SDS_P1;SDS_P2;PMS_P1;PMS_P2;Temp;Humidity;BMP_temperature;BMP_pressure;BME280_temperature;BME280_humidity;BME280_pressure;Samples;Min_cycle;Max_cycle;Signal;HPM_P1;HPM_P2
2023/08/31 00:01:35;;;;;;;6.90;2.80;;;;;;;20.48;100.00;99393.15;105147;1262;70298;-50
2023/08/31 00:04:04;;;;;;;3.60;2.90;;;;;;;20.46;100.00;99396.05;104388;1261;60556;-50
2023/08/31 00:06:31;;;;;;;4.10;2.60;;;;;;;20.44;100.00;99391.30;104568;1263;60440;-49
2023/08/31 00:08:58;;;;;;;5.30;2.70;;;;;;;20.42;100.00;99387.94;104438;1259;74306;-53
2023/08/31 00:11:26;;;;;;;5.60;2.30;;;;;;;20.39;100.00;99387.38;104503;1259;65545;-49
2023/08/31 00:13:53;;;;;;;4.40;2.90;;;;;;;20.38;100.00;99387.89;104599;1263;75054;-51
2023/08/31 00:16:24;;;;;;;5.00;4.00;;;;;;;20.35;100.00;99386.83;104409;1260;60416;-51
2023/08/31 00:18:53;;;;;;;7.30;3.30;;;;;;;20.34;100.00;99385.85;104376;1262;60463;-51
2023/08/31 00:21:21;;;;;;;5.90;4.00;;;;;;;20.32;100.00;99388.98;104286;1263;74466;-51
2023/08/31 00:23:49;;;;;;;4.50;2.20;;;;;;;20.30;100.00;99392.80;104557;1259;66796;-51
2023/08/31 00:26:16;;;;;;;3.10;2.50;;;;;;;20.28;100.00;99381.91;104359;1260;72673;-52
2023/08/31 00:28:45;;;;;;;3.20;1.80;;;;;;;20.24;100.00;99382.20;104381;1260;60501;-51
2023/08/31 00:31:12;;;;;;;10.70;2.50;;;;;;;20.24;100.00;99375.91;104355;1261;60447;-51
2023/08/31 00:33:40;;;;;;;4.10;2.40;;;;;;;20.22;100.00;99376.05;104379;1260;72596;-51
2023/08/31 00:36:07;;;;;;;4.70;2.50;;;;;;;20.21;100.00;99375.58;104351;1263;66831;-49
2023/08/31 00:38:35;;;;;;;6.20;3.00;;;;;;;20.20;100.00;99374.65;106148;1261;71763;-49
2023/08/31 00:41:03;;;;;;;7.90;2.20;;;;;;;20.17;100.00;99369.23;104335;1263;60553;-51
2023/08/31 00:43:31;;;;;;;5.30;2.20;;;;;;;20.15;100.00;99369.05;104361;1260;60537;-51
2023/08/31 00:45:59;;;;;;;3.80;2.00;;;;;;;20.15;100.00;99372.60;108618;1257;72827;-51
2023/08/31 00:48:26;;;;;;;4.20;2.40;;;;;;;20.14;100.00;99377.56;108667;1260;67569;-51
2023/08/31 00:50:53;;;;;;;4.50;2.20;;;;;;;20.13;100.00;99374.14;108646;1260;71747;-51
2023/08/31 00:53:21;;;;;;;5.70;2.00;;;;;;;20.13;100.00;99371.13;108628;1257;58668;-52
2023/08/31 00:55:48;;;;;;;9.60;1.70;;;;;;;20.12;100.00;99364.99;108576;1259;60633;-52
2023/08/31 00:58:15;;;;;;;3.90;2.40;;;;;;;20.12;100.00;99371.92;108574;1259;72616;-52
2023/08/31 01:01:08;;;;;;;3.60;1.60;;;;;;;20.12;100.00;99370.11;108697;1258;65615;-51
2023/08/31 01:04:03;;;;;;;5.40;1.50;;;;;;;20.12;100.00;99361.36;108576;1265;72670;-51
2023/08/31 01:07:02;;;;;;;3.30;1.50;;;;;;;20.12;100.00;99359.17;108632;1259;60276;-52
2023/08/31 01:09:55;;;;;;;5.70;2.00;;;;;;;20.13;100.00;99352.34;108668;1259;59816;-52
2023/08/31 01:12:30;;;;;;;5.20;1.20;;;;;;;20.13;100.00;99350.84;108657;1258;72668;-51
2023/08/31 01:15:04;;;;;;;3.10;1.40;;;;;;;20.13;100.00;99351.05;108469;1259;66748;-51
2023/08/31 01:17:32;;;;;;;6.10;1.30;;;;;;;20.13;100.00;99351.77;108630;1259;71576;-53
2023/08/31 01:19:59;;;;;;;3.10;1.70;;;;;;;20.13;100.00;99354.02;108171;1260;60104;-52
2023/08/31 01:22:48;;;;;;;3.20;1.10;;;;;;;20.12;100.00;99355.36;104929;1260;60591;-52
2023/08/31 01:25:15;;;;;;;6.00;1.50;;;;;;;20.11;100.00;99355.59;104183;1260;73524;-49
2023/08/31 01:27:43;;;;;;;3.30;1.40;;;;;;;20.12;100.00;99358.43;104212;1260;66773;-50
2023/08/31 01:30:10;;;;;;;2.70;1.30;;;;;;;20.12;100.00;99356.77;103921;1260;71711;-50
2023/08/31 01:32:38;;;;;;;4.30;1.70;;;;;;;20.13;100.00;99356.74;104350;1260;60568;-48
2023/08/31 01:35:07;;;;;;;1.70;1.50;;;;;;;20.12;100.00;99356.96;107199;1262;61152;-51
2023/08/31 01:37:40;;;;;;;5.80;1.70;;;;;;;20.12;100.00;99355.53;108522;1260;73847;-51
2023/08/31 01:40:17;;;;;;;5.80;1.40;;;;;;;20.12;100.00;99356.80;106886;1260;65553;-51
2023/08/31 01:42:46;;;;;;;3.80;1.50;;;;;;;20.12;100.00;99357.02;105556;1260;72729;-52
2023/08/31 01:45:20;;;;;;;5.30;1.50;;;;;;;20.11;100.00;99354.48;104202;1260;60459;-49
2023/08/31 01:47:48;;;;;;;3.30;1.70;;;;;;;20.11;100.00;99356.77;104591;1258;60418;-52
2023/08/31 01:50:18;;;;;;;3.20;1.50;;;;;;;20.10;100.00;99356.10;104333;1260;72648;-52
2023/08/31 01:52:45;;;;;;;1.80;1.30;;;;;;;20.09;100.00;99352.33;104381;1259;65499;-53
2023/08/31 01:55:15;;;;;;;3.70;1.30;;;;;;;20.09;100.00;99358.33;104356;1261;72706;-52
2023/08/31 01:57:43;;;;;;;3.10;1.30;;;;;;;20.09;100.00;99354.88;105752;1260;60345;-51
2023/08/31 02:00:16;;;;;;;1.90;1.20;;;;;;;20.08;100.00;99356.80;105468;1260;60594;-51
2023/08/31 02:02:46;;;;;;;5.40;1.60;;;;;;;20.08;100.00;99362.31;104749;1260;72559;-51
2023/08/31 02:05:14;;;;;;;5.20;1.40;;;;;;;20.07;100.00;99365.63;104235;1259;68263;-51
2023/08/31 02:07:41;;;;;;;2.80;1.20;;;;;;;20.07;100.00;99367.64;104814;1253;70121;-50
2023/08/31 02:10:09;;;;;;;3.60;1.00;;;;;;;20.06;100.00;99371.21;104662;1259;60585;-49
2023/08/31 02:12:36;;;;;;;7.50;1.40;;;;;;;20.05;100.00;99377.30;104856;1256;60486;-50
2023/08/31 02:15:05;;;;;;;3.30;1.60;;;;;;;20.05;100.00;99382.08;104923;1253;72856;-51
2023/08/31 02:17:36;;;;;;;6.70;1.40;;;;;;;20.03;100.00;99381.98;105797;1253;66767;-51
2023/08/31 02:20:06;;;;;;;3.50;1.30;;;;;;;20.03;100.00;99384.26;104793;1254;72407;-51
2023/08/31 02:22:34;;;;;;;5.50;2.20;;;;;;;20.03;100.00;99384.25;105409;1260;61248;-51
2023/08/31 02:25:02;;;;;;;1.70;1.20;;;;;;;20.03;100.00;99383.70;106371;1253;60474;-52
2023/08/31 02:29:45;;;;;;;5.60;1.40;;;;;;;20.04;100.00;99415.25;101773;1293;601451;-50
2023/08/31 02:32:12;;;;;;;4.10;1.20;;;;;;;20.01;100.00;99410.24;103640;1267;60574;-50
2023/08/31 02:34:40;;;;;;;2.80;1.20;;;;;;;20.01;100.00;99414.41;103905;1273;59711;-51
2023/08/31 02:37:07;;;;;;;6.50;2.10;;;;;;;20.01;100.00;99414.06;103825;1269;71017;-50
2023/08/31 02:39:34;;;;;;;2.70;1.50;;;;;;;20.00;100.00;99408.13;103838;1270;65602;-52
2023/08/31 02:42:02;;;;;;;2.90;1.10;;;;;;;19.99;100.00;99403.84;103721;1273;72729;-52
2023/08/31 02:44:29;;;;;;;8.10;1.70;;;;;;;19.98;100.00;99400.77;103670;1267;173918;-50
2023/08/31 02:46:57;;;;;;;5.60;1.30;;;;;;;19.96;100.00;99403.43;103904;1268;59252;-50
2023/08/31 02:49:26;;;;;;;3.80;1.60;;;;;;;19.94;100.00;99409.84;103886;1265;72362;-51
2023/08/31 02:51:56;;;;;;;6.20;1.50;;;;;;;19.92;100.00;99413.84;104937;1268;66918;-51
2023/08/31 02:54:23;;;;;;;5.90;1.60;;;;;;;19.88;100.00;99411.67;103875;1273;73016;-51
2023/08/31 02:56:50;;;;;;;4.70;1.20;;;;;;;19.85;100.00;99407.80;103859;1265;60113;-50
2023/08/31 02:59:18;;;;;;;4.10;1.40;;;;;;;19.81;100.00;99407.95;103911;1273;59674;-51
2023/08/31 03:01:48;;;;;;;4.90;2.10;;;;;;;19.78;100.00;99408.41;103726;1267;71906;-51
2023/08/31 03:04:17;;;;;;;2.90;1.20;;;;;;;19.75;100.00;99403.75;103849;1271;66902;-50
2023/08/31 03:06:45;;;;;;;12.70;2.30;;;;;;;19.72;100.00;99406.30;103855;1271;74420;-51
2023/08/31 03:09:13;;;;;;;3.60;1.80;;;;;;;19.69;100.00;99410.20;103973;1270;61826;-51
2023/08/31 03:11:41;;;;;;;6.30;1.60;;;;;;;19.67;100.00;99412.20;103865;1268;60189;-50
2023/08/31 03:14:09;;;;;;;3.20;1.50;;;;;;;19.64;100.00;99414.91;103734;1266;71777;-50
2023/08/31 03:16:37;;;;;;;5.30;1.90;;;;;;;19.63;100.00;99412.16;103686;1265;69047;-50
2023/08/31 03:19:05;;;;;;;2.90;1.40;;;;;;;19.62;100.00;99410.42;103719;1267;71437;-51
2023/08/31 03:21:33;;;;;;;2.80;1.20;;;;;;;19.61;100.00;99404.33;103760;1271;59760;-51
2023/08/31 03:24:00;;;;;;;2.00;1.10;;;;;;;19.60;100.00;99406.05;103875;1273;59575;-52
2023/08/31 03:26:27;;;;;;;4.30;1.40;;;;;;;19.59;100.00;99404.48;103936;1266;73059;-51
2023/08/31 03:28:55;;;;;;;3.10;1.30;;;;;;;19.59;100.00;99402.11;103944;1271;68780;-52
2023/08/31 03:31:22;;;;;;;4.50;1.30;;;;;;;19.60;100.00;99400.61;103722;1268;72331;-51
2023/08/31 03:33:50;;;;;;;7.00;1.40;;;;;;;19.60;100.00;99401.86;103987;1266;59728;-49
2023/08/31 03:36:17;;;;;;;3.70;1.40;;;;;;;19.60;100.00;99407.52;103753;1266;60020;-50
2023/08/31 03:38:44;;;;;;;3.40;1.20;;;;;;;19.59;100.00;99402.83;103741;1269;73639;-51
2023/08/31 03:41:12;;;;;;;5.20;1.10;;;;;;;19.59;100.00;99407.91;103833;1268;67786;-50
2023/08/31 03:43:40;;;;;;;7.30;1.20;;;;;;;19.59;100.00;99402.27;108145;1268;72048;-53
2023/08/31 03:46:07;;;;;;;2.30;1.80;;;;;;;19.59;100.00;99405.17;108206;1267;60161;-52
2023/08/31 03:48:34;;;;;;;2.50;1.30;;;;;;;19.60;100.00;99412.23;108007;1267;58852;-53
2023/08/31 03:51:02;;;;;;;2.70;1.30;;;;;;;19.60;100.00;99412.06;108160;1268;71754;-51
2023/08/31 03:53:30;;;;;;;6.90;1.20;;;;;;;19.60;100.00;99412.58;107966;1265;65667;-51
2023/08/31 03:55:58;;;;;;;6.40;1.30;;;;;;;19.61;100.00;99417.02;108086;1265;71138;-51
2023/08/31 03:58:25;;;;;;;5.30;1.20;;;;;;;19.62;100.00;99413.52;107943;1265;60649;-50
2023/08/31 04:00:54;;;;;;;1.40;1.10;;;;;;;19.62;100.00;99408.02;108201;1265;58796;-51
2023/08/31 04:03:22;;;;;;;3.60;1.00;;;;;;;19.63;100.00;99404.72;108135;1265;73454;-51
2023/08/31 04:05:54;;;;;;;5.30;1.50;;;;;;;19.63;100.00;99403.55;108108;1268;67203;-51
2023/08/31 04:08:22;;;;;;;3.90;1.00;;;;;;;19.64;100.00;99405.55;108097;1265;72777;-51
2023/08/31 04:10:49;;;;;;;2.10;1.30;;;;;;;19.63;100.00;99407.73;108165;1267;58800;-51
2023/08/31 04:13:16;;;;;;;4.00;1.00;;;;;;;19.64;100.00;99409.15;108207;1265;58797;-51
2023/08/31 04:15:44;;;;;;;7.90;1.50;;;;;;;19.64;100.00;99406.42;108062;1265;72237;-51
2023/08/31 04:18:11;;;;;;;4.60;1.30;;;;;;;19.64;100.00;99409.35;108190;1265;65616;-51
2023/08/31 04:20:39;;;;;;;4.80;1.50;;;;;;;19.63;100.00;99408.91;106318;1272;72746;-51
2023/08/31 04:23:06;;;;;;;6.80;2.10;;;;;;;19.62;100.00;99411.14;108055;1266;60598;-53
2023/08/31 04:25:34;;;;;;;5.40;1.50;;;;;;;19.62;100.00;99408.22;108166;1265;58153;-53
2023/08/31 04:28:01;;;;;;;4.00;1.30;;;;;;;19.64;100.00;99410.55;104159;1271;73805;-51
2023/08/31 04:30:29;;;;;;;9.00;1.50;;;;;;;19.68;100.00;99414.11;103874;1271;67389;-52
2023/08/31 04:32:56;;;;;;;5.30;1.80;;;;;;;19.71;100.00;99412.52;104345;1264;71401;-52
2023/08/31 04:35:24;;;;;;;8.20;2.00;;;;;;;19.77;100.00;99415.27;104274;1260;59750;-51
2023/08/31 04:37:51;;;;;;;7.50;1.60;;;;;;;19.92;100.00;99418.42;104184;1259;59912;-51
2023/08/31 04:40:19;;;;;;;9.30;2.90;;;;;;;20.14;100.00;99415.30;104445;1264;73299;-52
2023/08/31 04:42:46;;;;;;;8.70;2.50;;;;;;;20.37;100.00;99411.77;104237;1259;65512;-50
2023/08/31 04:45:13;;;;;;;9.70;2.90;;;;;;;20.57;100.00;99409.45;104307;1266;74038;-51
2023/08/31 04:47:41;;;;;;;3.90;2.40;;;;;;;20.71;100.00;99412.98;104244;1259;59775;-51
2023/08/31 04:50:09;;;;;;;4.30;1.60;;;;;;;20.83;100.00;99412.92;104186;1259;60107;-51
2023/08/31 04:52:36;;;;;;;7.80;1.40;;;;;;;20.90;100.00;99416.32;105327;1264;73014;-49
2023/08/31 04:55:09;;;;;;;5.30;1.70;;;;;;;20.94;100.00;99416.61;104351;1259;65864;-51
2023/08/31 04:57:36;;;;;;;9.70;1.20;;;;;;;20.97;100.00;99418.69;104310;1259;72363;-51
2023/08/31 05:00:04;;;;;;;2.60;1.00;;;;;;;20.99;100.00;99420.36;104070;1260;59788;-51
2023/08/31 05:02:32;;;;;;;4.40;1.70;;;;;;;21.00;100.00;99424.46;106452;1259;59992;-50
2023/08/31 05:04:59;;;;;;;1.60;1.00;;;;;;;21.01;100.00;99419.90;104039;1259;72045;-49
2023/08/31 05:07:27;;;;;;;3.40;1.00;;;;;;;21.04;100.00;99420.20;104852;1264;65591;-51
2023/08/31 05:09:54;;;;;;;9.90;2.00;;;;;;;21.06;100.00;99421.92;104324;1261;71396;-51
2023/08/31 05:12:22;;;;;;;1.90;1.10;;;;;;;21.10;100.00;99426.16;104464;1259;59709;-50
2023/08/31 05:14:49;;;;;;;5.10;1.90;;;;;;;21.12;100.00;99425.95;104521;1263;60327;-51
2023/08/31 05:17:16;;;;;;;3.20;1.00;;;;;;;21.13;100.00;99431.31;104512;1264;73048;-50
2023/08/31 05:19:44;;;;;;;1.70;0.90;;;;;;;21.13;100.00;99438.98;104278;1259;65604;-52
2023/08/31 05:22:11;;;;;;;3.70;1.00;;;;;;;21.13;100.00;99445.05;104452;1262;72536;-49
2023/08/31 05:24:39;;;;;;;4.10;1.20;;;;;;;21.11;100.00;99447.95;104361;1261;60772;-50
2023/08/31 05:27:06;;;;;;;5.10;0.90;;;;;;;21.09;100.00;99450.11;104321;1259;59837;-50
2023/08/31 05:29:33;;;;;;;8.00;1.00;;;;;;;21.08;100.00;99451.02;104300;1262;73550;-52
2023/08/31 05:32:00;;;;;;;2.80;0.90;;;;;;;21.06;100.00;99450.98;104355;1264;67270;-51
2023/08/31 05:34:28;;;;;;;2.00;0.90;;;;;;;21.06;100.00;99454.45;104208;1262;72734;-50
2023/08/31 05:36:55;;;;;;;1.10;0.90;;;;;;;21.09;100.00;99454.92;104325;1262;59735;-52
2023/08/31 05:39:22;;;;;;;3.40;0.90;;;;;;;21.13;100.00;99460.29;104451;1264;60042;-51
2023/08/31 05:41:50;;;;;;;1.40;0.80;;;;;;;21.20;100.00;99460.11;104450;1259;73157;-51
2023/08/31 05:44:17;;;;;;;3.00;0.80;;;;;;;21.27;100.00;99457.34;104329;1265;65549;-52
2023/08/31 05:46:44;;;;;;;6.20;0.90;;;;;;;21.36;100.00;99456.55;104300;1262;71433;-52
2023/08/31 05:49:12;;;;;;;3.30;0.90;;;;;;;21.44;100.00;99456.08;104109;1259;59639;-52
2023/08/31 05:51:39;;;;;;;2.30;0.70;;;;;;;21.53;100.00;99456.83;104272;1264;59589;-53
2023/08/31 05:54:11;;;;;;;2.70;0.80;;;;;;;21.63;100.00;99457.89;104324;1259;73540;-52
2023/08/31 05:56:39;;;;;;;4.20;1.30;;;;;;;21.72;100.00;99458.24;104367;1265;65688;-53
2023/08/31 05:59:06;;;;;;;2.40;0.90;;;;;;;21.80;100.00;99460.13;104427;1259;71897;-54
2023/08/31 06:01:36;;;;;;;6.30;1.00;;;;;;;21.90;100.00;99459.15;104429;1261;60083;-53
2023/08/31 06:04:03;;;;;;;5.30;0.80;;;;;;;21.98;100.00;99460.41;105616;1261;59780;-52
2023/08/31 06:06:32;;;;;;;5.30;1.20;;;;;;;22.06;100.00;99462.92;105267;1264;74864;-56
2023/08/31 06:09:00;;;;;;;3.90;1.00;;;;;;;22.10;100.00;99461.35;108522;1259;67293;-54
2023/08/31 06:11:27;;;;;;;3.80;0.80;;;;;;;22.14;100.00;99459.66;104874;1263;70510;-56
2023/08/31 06:13:55;;;;;;;3.70;0.80;;;;;;;22.18;100.00;99455.81;104478;1264;60065;-56
2023/08/31 06:16:23;;;;;;;4.30;1.00;;;;;;;22.22;100.00;99459.58;108468;1259;60001;-54
2023/08/31 06:18:51;;;;;;;4.20;0.90;;;;;;;22.27;100.00;99457.08;105788;1264;71026;-53
2023/08/31 06:21:18;;;;;;;12.50;1.00;;;;;;;22.33;100.00;99458.67;104149;1264;66971;-54
2023/08/31 06:23:46;;;;;;;7.70;1.10;;;;;;;22.38;100.00;99462.33;104364;1264;72766;-55
2023/08/31 06:26:13;;;;;;;4.70;0.80;;;;;;;22.45;100.00;99464.04;104300;1259;59621;-54
2023/08/31 06:28:40;;;;;;;4.80;0.80;;;;;;;22.53;100.00;99469.23;104376;1262;59655;-54
2023/08/31 06:31:08;;;;;;;4.70;0.80;;;;;;;22.62;100.00;99469.00;104391;1262;73459;-54
2023/08/31 06:33:36;;;;;;;3.90;0.80;;;;;;;22.71;100.00;99475.66;104226;1261;65682;-53
2023/08/31 06:36:03;;;;;;;3.20;0.90;;;;;;;22.78;100.00;99476.58;104190;1266;73198;-54
2023/08/31 06:38:31;;;;;;;3.80;1.50;;;;;;;22.85;100.00;99470.54;104173;1261;60557;-54
2023/08/31 06:40:59;;;;;;;7.10;0.80;;;;;;;22.93;100.00;99475.38;104401;1262;60590;-54
2023/08/31 06:44:56;;;;;;;3.70;0.90;;;;;;;23.05;100.00;99501.08;101836;1292;600444;-55
2023/08/31 06:47:24;;;;;;;4.30;0.90;;;;;;;23.08;100.00;99495.54;103955;1266;62576;-54
2023/08/31 06:49:52;;;;;;;1.60;0.90;;;;;;;23.15;100.00;99493.16;103729;1266;60774;-53
2023/08/31 06:52:20;;;;;;;2.10;0.80;;;;;;;23.22;100.00;99493.48;103991;1270;72482;-54
2023/08/31 06:54:58;;;;;;;3.70;0.70;;;;;;;23.28;100.00;99490.16;104027;1270;65788;-54
2023/08/31 06:57:27;;;;;;;1.40;0.90;;;;;;;23.34;100.00;99492.23;108172;1263;177815;-55
2023/08/31 06:59:54;;;;;;;5.60;1.00;;;;;;;23.39;100.00;99488.59;108436;1265;58761;-55
2023/08/31 07:02:22;;;;;;;8.30;1.00;;;;;;;23.44;100.00;99489.73;108404;1263;61047;-54
2023/08/31 07:04:52;;;;;;;3.60;0.80;;;;;;;23.50;100.00;99486.20;108633;1259;74955;-53
2023/08/31 07:07:19;;;;;;;10.40;0.90;;;;;;;23.57;100.00;99483.98;108730;1255;65690;-55
2023/08/31 07:09:48;;;;;;;9.30;1.30;;;;;;;23.65;100.00;99484.82;108937;1255;70914;-56
2023/08/31 07:12:15;;;;;;;4.60;0.90;;;;;;;23.72;100.00;99486.92;105518;1257;59771;-55
2023/08/31 07:14:43;;;;;;;3.10;0.90;;;;;;;23.80;100.00;99493.13;104796;1256;59954;-54
2023/08/31 07:17:11;;;;;;;6.90;1.20;;;;;;;23.85;100.00;99497.81;104545;1257;71797;-55
2023/08/31 07:19:38;;;;;;;3.30;0.90;;;;;;;23.91;100.00;99504.36;104777;1259;68703;-55
2023/08/31 07:22:06;;;;;;;3.70;0.70;;;;;;;23.96;100.00;99511.10;104784;1257;71140;-55
2023/08/31 07:24:36;;;;;;;8.50;2.40;;;;;;;24.02;100.00;99509.56;104794;1260;59677;-53
2023/08/31 07:27:04;;;;;;;2.70;0.80;;;;;;;24.08;100.00;99512.75;104913;1258;59657;-54
2023/08/31 07:29:31;;;;;;;4.90;0.90;;;;;;;24.14;100.00;99509.13;105019;1257;73111;-56
2023/08/31 07:31:59;;;;;;;10.50;1.00;;;;;;;24.21;100.00;99509.91;105037;1253;66886;-55
2023/08/31 07:34:26;;;;;;;4.70;0.80;;;;;;;24.27;100.00;99508.34;104842;1255;71449;-54
2023/08/31 07:36:54;;;;;;;4.00;0.90;;;;;;;24.33;100.00;99504.93;104864;1253;59984;-55
2023/08/31 07:39:21;;;;;;;5.00;0.90;;;;;;;24.39;100.00;99508.50;104831;1257;60142;-55
2023/08/31 07:41:49;;;;;;;4.90;0.80;;;;;;;24.45;100.00;99503.55;104870;1260;73039;-55
2023/08/31 07:44:19;;;;;;;11.80;1.40;;;;;;;24.51;100.00;99505.84;105063;1255;65602;-54
2023/08/31 07:46:46;;;;;;;2.70;0.70;;;;;;;24.57;100.00;99503.73;104388;1259;71410;-54
2023/08/31 07:49:14;;;;;;;3.70;1.00;;;;;;;24.62;100.00;99502.39;104569;1257;64649;-53
2023/08/31 07:51:41;;;;;;;6.10;1.00;;;;;;;24.68;100.00;99503.59;104629;1256;59698;-56
2023/08/31 07:54:08;;;;;;;2.80;1.00;;;;;;;24.74;100.00;99502.58;104614;1260;73024;-53
2023/08/31 07:56:35;;;;;;;3.10;0.70;;;;;;;24.81;100.00;99499.31;104722;1256;65488;-56
2023/08/31 07:59:03;;;;;;;3.30;1.20;;;;;;;24.88;100.00;99502.77;104546;1259;72797;-54
2023/08/31 08:01:30;;;;;;;5.50;0.90;;;;;;;24.94;100.00;99500.73;104697;1256;59794;-55
2023/08/31 08:03:58;;;;;;;3.10;0.60;;;;;;;25.00;100.00;99502.55;104482;1257;60051;-54
2023/08/31 08:06:25;;;;;;;6.50;0.70;;;;;;;25.06;100.00;99500.60;104648;1258;73703;-56
2023/08/31 08:08:53;;;;;;;4.40;0.80;;;;;;;25.13;100.00;99497.63;104641;1259;66882;-54
2023/08/31 08:11:22;;;;;;;8.10;0.70;;;;;;;25.19;100.00;99493.94;104872;1256;72638;-56
2023/08/31 08:13:49;;;;;;;5.30;1.00;;;;;;;25.26;100.00;99490.77;104845;1256;59775;-51
2023/08/31 08:16:16;;;;;;;3.90;0.80;;;;;;;25.34;100.00;99486.47;104934;1259;59636;-55
2023/08/31 08:18:44;;;;;;;6.40;1.20;;;;;;;25.39;100.00;99485.79;104869;1260;73532;-54
2023/08/31 08:21:11;;;;;;;2.60;0.90;;;;;;;25.45;100.00;99479.06;104746;1260;65641;-53
2023/08/31 08:23:38;;;;;;;1.90;0.60;;;;;;;25.52;100.00;99482.48;104925;1256;73124;-55
2023/08/31 08:26:06;;;;;;;4.20;0.80;;;;;;;25.60;100.00;99483.09;104658;1256;60061;-54
2023/08/31 08:28:34;;;;;;;2.80;0.70;;;;;;;25.68;100.00;99481.23;104717;1256;61003;-54
2023/08/31 08:31:03;;;;;;;1.70;0.70;;;;;;;25.73;100.00;99483.58;104720;1256;73074;-52
2023/08/31 08:33:31;;;;;;;3.60;0.80;;;;;;;25.79;100.00;99485.23;105521;1257;66772;-55
2023/08/31 08:35:58;;;;;;;5.70;0.60;;;;;;;25.85;100.00;99485.13;104812;1260;71371;-55
2023/08/31 08:38:26;;;;;;;5.30;0.70;;;;;;;25.92;100.00;99483.71;104743;1256;59754;-55
2023/08/31 08:40:53;;;;;;;3.70;0.70;;;;;;;26.00;100.00;99481.55;104752;1256;60729;-54
2023/08/31 08:43:24;;;;;;;4.00;1.00;;;;;;;26.06;100.00;99480.30;104776;1260;73165;-55
2023/08/31 08:45:53;;;;;;;1.70;0.60;;;;;;;26.12;100.00;99474.04;104837;1256;65695;-55
2023/08/31 08:48:21;;;;;;;3.60;0.60;;;;;;;26.18;100.00;99475.23;105550;1259;72499;-55
2023/08/31 08:50:48;;;;;;;2.20;0.70;;;;;;;26.23;100.00;99475.29;104753;1256;59847;-55
2023/08/31 08:53:16;;;;;;;6.20;0.70;;;;;;;26.30;100.00;99472.47;104604;1257;59702;-53
2023/08/31 08:55:43;;;;;;;1.00;0.60;;;;;;;26.38;100.00;99472.07;104818;1259;73061;-55
2023/08/31 08:58:11;;;;;;;4.70;0.60;;;;;;;26.45;100.00;99469.61;104726;1260;66777;-55
2023/08/31 09:00:38;;;;;;;1.50;0.80;;;;;;;26.51;100.00;99473.14;104741;1256;71183;-56
2023/08/31 09:03:06;;;;;;;1.30;0.70;;;;;;;26.54;100.00;99474.05;104838;1257;60122;-55
2023/08/31 09:05:34;;;;;;;1.30;0.70;;;;;;;26.55;100.00;99482.50;104965;1256;60075;-55
2023/08/31 09:08:15;;;;;;;3.10;0.70;;;;;;;26.58;100.00;99485.57;104764;1256;73004;-55
2023/08/31 09:10:43;;;;;;;4.70;0.80;;;;;;;26.61;100.00;99486.41;104792;1257;66765;-53
2023/08/31 09:13:17;;;;;;;4.70;0.80;;;;;;;26.68;100.00;99486.95;104828;1256;72448;-54
2023/08/31 09:15:47;;;;;;;2.60;0.60;;;;;;;26.75;100.00;99488.59;104839;1256;60504;-54
2023/08/31 09:18:15;;;;;;;4.80;0.70;;;;;;;26.83;100.00;99493.54;105580;1260;60423;-55
2023/08/31 09:20:46;;;;;;;4.90;0.60;;;;;;;26.90;100.00;99490.31;105043;1259;73054;-53
2023/08/31 09:23:14;;;;;;;2.50;0.60;;;;;;;26.97;100.00;99492.21;104889;1254;66790;-55
2023/08/31 09:25:49;;;;;;;4.20;0.60;;;;;;;27.03;100.00;99482.33;105651;1254;72615;-55
2023/08/31 09:28:17;;;;;;;1.20;0.60;;;;;;;27.07;100.00;99488.35;104789;1253;59718;-55
2023/08/31 09:30:49;;;;;;;3.70;0.70;;;;;;;27.11;100.00;99494.79;104817;1255;59740;-54
2023/08/31 09:33:18;;;;;;;2.60;0.90;;;;;;;27.15;100.00;99492.23;105721;1259;73091;-55
2023/08/31 09:35:50;;;;;;;4.20;0.80;;;;;;;27.19;100.00;99491.86;109076;1253;66215;-55
2023/08/31 09:38:18;;;;;;;4.60;1.00;;;;;;;27.20;100.00;99494.14;109105;1253;72006;-56
2023/08/31 09:40:46;;;;;;;4.70;0.90;;;;;;;27.18;100.00;99497.24;109113;1253;60657;-56
2023/08/31 09:43:21;;;;;;;1.30;0.70;;;;;;;27.16;100.00;99495.64;109211;1253;60037;-55
2023/08/31 09:45:48;;;;;;;8.60;1.00;;;;;;;27.15;100.00;99509.25;109038;1253;73035;-57
2023/08/31 09:48:16;;;;;;;6.80;1.50;;;;;;;27.14;100.00;99509.67;109098;1253;65827;-56
2023/08/31 09:50:45;;;;;;;3.00;0.70;;;;;;;27.15;100.00;99513.33;109090;1254;73646;-56
2023/08/31 09:53:29;;;;;;;1.90;0.80;;;;;;;27.17;100.00;99540.45;101906;1297;600815;-55
2023/08/31 09:55:56;;;;;;;2.90;0.80;;;;;;;27.17;100.00;99534.41;104092;1266;59370;-55
2023/08/31 09:58:24;;;;;;;2.30;0.90;;;;;;;27.17;100.00;99536.84;108263;1266;60442;-55
2023/08/31 10:00:51;;;;;;;4.30;0.90;;;;;;;27.18;100.00;99532.61;108255;1266;70805;-56
2023/08/31 10:03:20;;;;;;;9.70;1.10;;;;;;;27.20;100.00;99536.23;108331;1266;65636;-56
2023/08/31 10:05:49;;;;;;;3.20;0.70;;;;;;;27.21;100.00;99538.64;108224;1266;71881;-55
2023/08/31 10:08:17;;;;;;;6.40;0.90;;;;;;;27.24;100.00;99536.52;108219;1264;161612;-56
2023/08/31 10:10:49;;;;;;;3.70;0.90;;;;;;;27.27;100.00;99535.06;108475;1263;60186;-56
2023/08/31 10:13:16;;;;;;;6.00;0.90;;;;;;;27.29;100.00;99534.81;108387;1263;72257;-55
2023/08/31 10:15:44;;;;;;;5.10;0.80;;;;;;;27.31;100.00;99529.17;108333;1263;66915;-56
2023/08/31 10:18:12;;;;;;;5.70;0.70;;;;;;;27.33;100.00;99534.30;106409;1259;71624;-54
2023/08/31 10:20:42;;;;;;;2.00;0.60;;;;;;;27.34;100.00;99530.52;104598;1257;59738;-55
2023/08/31 10:23:10;;;;;;;6.50;0.70;;;;;;;27.39;100.00;99528.77;104484;1257;61019;-55
2023/08/31 10:25:50;;;;;;;3.50;0.70;;;;;;;27.47;100.00;99522.73;104547;1261;73052;-54
2023/08/31 10:28:18;;;;;;;2.10;0.80;;;;;;;27.58;100.00;99529.62;104829;1263;65646;-55
2023/08/31 10:31:17;;;;;;;9.80;0.70;;;;;;;27.67;100.00;99519.81;104764;1261;71852;-55
2023/08/31 10:33:55;;;;;;;3.70;0.70;;;;;;;27.76;100.00;99528.98;104709;1257;59654;-56
2023/08/31 10:36:33;;;;;;;3.80;0.80;;;;;;;27.81;100.00;99529.23;104761;1258;60508;-55
2023/08/31 10:39:04;;;;;;;7.70;0.80;;;;;;;27.84;100.00;99530.71;104713;1259;74025;-55
2023/08/31 10:41:35;;;;;;;5.20;0.70;;;;;;;27.85;100.00;99529.80;104721;1265;66939;-56
2023/08/31 10:44:18;;;;;;;3.00;0.70;;;;;;;27.85;100.00;99526.55;104857;1263;72619;-54
2023/08/31 10:46:45;;;;;;;5.60;0.70;;;;;;;27.83;100.00;99521.80;105614;1257;60088;-55
2023/08/31 10:49:14;;;;;;;5.30;0.80;;;;;;;27.83;100.00;99520.27;104744;1262;59690;-56
2023/08/31 10:52:05;;;;;;;2.30;0.70;;;;;;;27.84;100.00;99523.70;104414;1263;72987;-54
2023/08/31 10:54:36;;;;;;;3.80;0.70;;;;;;;27.84;100.00;99525.21;104733;1257;65836;-54
2023/08/31 10:57:07;;;;;;;5.40;0.70;;;;;;;27.81;100.00;99529.88;104299;1260;71669;-54
2023/08/31 10:59:45;;;;;;;2.20;0.70;;;;;;;27.80;100.00;99530.88;104736;1260;59689;-54
2023/08/31 11:02:38;;;;;;;3.00;1.10;;;;;;;27.80;100.00;99528.89;104263;1265;59835;-55
2023/08/31 11:05:09;;;;;;;3.20;0.70;;;;;;;27.80;100.00;99529.40;105127;1261;71758;-54
2023/08/31 11:07:40;;;;;;;6.10;0.90;;;;;;;27.81;100.00;99526.52;104765;1263;66722;-55
2023/08/31 11:10:13;;;;;;;3.80;0.90;;;;;;;27.83;100.00;99524.02;105045;1260;71421;-56
2023/08/31 11:12:41;;;;;;;5.10;0.60;;;;;;;27.85;100.00;99525.66;104935;1265;60094;-54
2023/08/31 11:15:11;;;;;;;3.50;0.80;;;;;;;27.84;100.00;99520.50;105448;1260;59916;-54
2023/08/31 11:17:40;;;;;;;7.60;0.80;;;;;;;27.82;100.00;99520.30;105335;1259;72692;-57
2023/08/31 11:20:17;;;;;;;7.70;0.80;;;;;;;27.80;100.00;99518.20;105228;1255;66743;-54
2023/08/31 11:22:46;;;;;;;4.00;0.80;;;;;;;27.76;100.00;99512.90;105075;1259;72658;-54
2023/08/31 11:25:14;;;;;;;3.30;0.60;;;;;;;27.74;100.00;99514.69;105548;1258;60430;-55
2023/08/31 11:27:41;;;;;;;6.00;0.70;;;;;;;27.70;100.00;99512.94;104838;1254;59773;-55
2023/08/31 11:30:15;;;;;;;3.90;0.80;;;;;;;27.68;100.00;99514.55;105825;1259;72804;-53